Photometre #849[NE_1.6_Dp] Portglenone_MO AOT

File : 20221128_849.hum

28/11/2022,09:29:05,TEMP=5.3,BA=5.68,STAT.D,ExtBa=12.40
28/11/2022,09:44:05,TEMP=6.0,BA=5.68,STAT.D,ExtBa=12.40
28/11/2022,09:59:05,TEMP=6.7,BA=5.68,STAT.D,ExtBa=12.40
28/11/2022,10:14:07,TEMP=7.6,BA=5.68,STAT.F,ExtBa=12.40
28/11/2022,10:57:29,TEMP=9.7,BA=5.60,STAT.D,ExtBa=12.20
28/11/2022,10:59:25,TEMP=10.1,BA=5.60,STAT.D,ExtBa=12.20
28/11/2022,11:01:21,TEMP=10.2,BA=5.64,STAT.D,ExtBa=12.20
28/11/2022,11:14:07,TEMP=10.1,BA=5.68,STAT.F,ExtBa=12.30
28/11/2022,11:53:58,TEMP=12.5,BA=5.60,STAT.D,ExtBa=12.20
28/11/2022,11:55:53,TEMP=12.5,BA=5.60,STAT.D,ExtBa=12.20
28/11/2022,11:59:05,TEMP=12.2,BA=5.60,STAT.D,ExtBa=12.20
28/11/2022,12:14:07,TEMP=12.6,BA=5.64,STAT.F,ExtBa=12.30
28/11/2022,12:52:07,TEMP=12.7,BA=5.56,STAT.D,ExtBa=12.20
28/11/2022,12:54:08,TEMP=12.7,BA=5.56,STAT.D,ExtBa=12.20
28/11/2022,12:59:05,TEMP=12.1,BA=5.56,STAT.D,ExtBa=12.20
28/11/2022,13:14:07,TEMP=12.6,BA=5.64,STAT.F,ExtBa=12.30
28/11/2022,13:54:42,TEMP=13.6,BA=5.56,STAT.D,ExtBa=12.20
28/11/2022,13:56:38,TEMP=13.6,BA=5.56,STAT.D,ExtBa=12.20
28/11/2022,13:59:05,TEMP=13.4,BA=5.56,STAT.D,ExtBa=12.20
28/11/2022,14:14:08,TEMP=13.3,BA=5.64,STAT.F,ExtBa=12.20
28/11/2022,14:51:00,TEMP=10.8,BA=5.56,STAT.D,ExtBa=12.20
28/11/2022,14:52:56,TEMP=10.6,BA=5.56,STAT.D,ExtBa=12.20
28/11/2022,14:59:05,TEMP=9.6,BA=5.56,STAT.D,ExtBa=12.20